Time;durP1;ratioP1;P1;durP2;ratioP2;P2;SDS_P1;SDS_P2;PMS_P1;PMS_P2;Temp;Humidity;BMP_temperature;BMP_pressure;BME280_temperature;BME280_humidity;BME280_pressure;Samples;Min_cycle;Max_cycle;Signal;HPM_P1;HPM_P2
2021/09/26 00:02:22;;;;;;;;;;;;;;;21.20;87.76;101017.75;7286254;19;152276;-53
2021/09/26 00:04:49;;;;;;;;;;;;;;;21.19;87.88;101016.91;7287897;19;151617;-53
2021/09/26 00:07:16;;;;;;;;;;;;;;;21.20;87.92;101010.13;7288125;19;154261;-52
2021/09/26 00:09:43;;;;;;;;;;;;;;;21.20;87.69;101007.34;7287130;19;153650;-53
2021/09/26 00:12:10;;;;;;;;;;;;;;;21.19;87.98;101008.47;7295711;19;152094;-53
2021/09/26 00:14:37;;;;;;;;;;;;;;;21.22;87.60;101009.81;7286158;19;154438;-52
2021/09/26 00:17:04;;;;;;;;;;;;;;;21.21;87.51;101008.97;7289069;19;151780;-53
2021/09/26 00:19:31;;;;;;;;;;;;;;;21.21;87.85;101005.34;7286383;19;153683;-52
2021/09/26 00:21:58;;;;;;;;;;;;;;;21.20;87.75;101010.13;7284128;19;152105;-52
2021/09/26 00:24:24;;;;;;;;;;;;;;;21.21;87.84;101008.97;7287732;19;151516;-52
2021/09/26 00:26:51;;;;;;;;;;;;;;;21.21;87.92;101005.34;7288502;19;153439;-53
2021/09/26 00:29:18;;;;;;;;;;;;;;;21.22;87.88;101001.38;7287266;19;153049;-53
2021/09/26 00:31:45;;;;;;;;;;;;;;;21.22;87.93;101001.38;7286514;19;152170;-53
2021/09/26 00:34:12;;;;;;;;;;;;;;;21.22;87.67;101004.19;7293530;19;153709;-52
2021/09/26 00:36:39;;;;;;;;;;;;;;;21.22;87.75;100999.41;7286173;19;151848;-58
2021/09/26 00:39:06;;;;;;;;;;;;;;;21.22;87.71;101001.38;7288713;19;152741;-53
2021/09/26 00:41:32;;;;;;;;;;;;;;;21.30;87.75;101000.69;7284551;19;153971;-53
2021/09/26 00:43:59;;;;;;;;;;;;;;;21.26;87.79;100997.63;7286446;19;151943;-53
2021/09/26 00:46:26;;;;;;;;;;;;;;;21.25;88.00;100992.34;7287374;19;152916;-52
2021/09/26 00:48:53;;;;;;;;;;;;;;;21.24;88.09;100999.09;7286177;19;153249;-53
2021/09/26 00:51:20;;;;;;;;;;;;;;;21.24;87.93;100994.31;7286503;19;152139;-53
2021/09/26 00:53:47;;;;;;;;;;;;;;;21.25;87.86;100992.34;7286639;19;153283;-53
2021/09/26 00:56:14;;;;;;;;;;;;;;;21.26;88.03;100996.78;7292686;19;153444;-53
2021/09/26 00:58:41;;;;;;;;;;;;;;;21.25;87.96;100992.34;7284496;19;152047;-53
2021/09/26 01:01:08;;;;;;;;;;;;;;;21.26;88.06;100988.38;7283441;19;153337;-53
2021/09/26 01:03:35;;;;;;;;;;;;;;;21.26;87.94;100988.38;7284778;19;152666;-53
2021/09/26 01:06:11;;;;;;;;;;;;;;;21.27;87.93;100995.66;7287065;19;152755;-53
2021/09/26 01:08:57;;;;;;;;;;;;;;;21.27;88.20;100992.84;7282041;19;153672;-53
2021/09/26 01:11:31;;;;;;;;;;;;;;;21.28;88.40;101000.13;7286083;19;151932;-52
2021/09/26 01:14:01;;;;;;;;;;;;;;;21.29;88.20;100999.00;7287588;19;153200;-54
2021/09/26 01:16:31;;;;;;;;;;;;;;;21.28;88.14;100992.53;7285719;19;153250;-53
2021/09/26 01:19:07;;;;;;;;;;;;;;;21.29;87.93;100999.84;7293962;19;151852;-53
2021/09/26 01:21:37;;;;;;;;;;;;;;;21.28;88.38;100998.16;7284142;19;154555;-53
2021/09/26 01:24:24;;;;;;;;;;;;;;;21.27;88.21;100999.31;7285865;19;151773;-53
2021/09/26 01:27:01;;;;;;;;;;;;;;;21.27;88.50;101006.91;7285194;19;152658;-53
2021/09/26 01:29:37;;;;;;;;;;;;;;;21.25;88.26;100995.16;7283957;19;152664;-52
2021/09/26 01:32:06;;;;;;;;;;;;;;;21.28;88.46;100997.31;7284483;19;151878;-54
2021/09/26 01:34:37;;;;;;;;;;;;;;;21.29;88.08;100994.22;7287093;19;154052;-54
2021/09/26 01:37:09;;;;;;;;;;;;;;;21.28;88.07;101000.97;7284107;19;153304;-53
2021/09/26 01:39:39;;;;;;;;;;;;;;;21.28;88.29;100994.53;7294245;19;151712;-54
2021/09/26 01:42:08;;;;;;;;;;;;;;;21.27;88.39;100995.66;7283382;19;152396;-54
2021/09/26 01:44:38;;;;;;;;;;;;;;;21.26;88.51;100988.38;7285424;19;151782;-53
2021/09/26 01:47:07;;;;;;;;;;;;;;;21.25;88.63;100983.91;7285820;19;153859;-54
2021/09/26 01:49:37;;;;;;;;;;;;;;;21.25;88.51;100981.09;7285942;19;153579;-53
2021/09/26 01:52:09;;;;;;;;;;;;;;;21.27;88.26;100984.41;7287217;19;152459;-53
2021/09/26 01:54:36;;;;;;;;;;;;;;;21.27;88.25;100973.19;7284896;19;153357;-53
2021/09/26 01:57:04;;;;;;;;;;;;;;;21.26;88.88;100971.50;7284250;19;154548;-53
2021/09/26 01:59:32;;;;;;;;;;;;;;;21.27;88.79;100973.19;7286638;19;151806;-54
2021/09/26 02:01:59;;;;;;;;;;;;;;;21.26;88.79;100965.88;7289686;19;152883;-53
2021/09/26 02:04:27;;;;;;;;;;;;;;;21.31;88.84;100971.41;7284070;19;152243;-53
2021/09/26 02:06:54;;;;;;;;;;;;;;;21.29;88.56;100968.09;7285659;19;151675;-53
2021/09/26 02:09:21;;;;;;;;;;;;;;;21.29;88.88;100962.47;7283454;19;153011;-52
2021/09/26 02:11:49;;;;;;;;;;;;;;;21.30;88.69;100956.50;7284211;19;151889;-53
2021/09/26 02:14:16;;;;;;;;;;;;;;;21.29;88.85;100959.66;7290514;19;152527;-53
2021/09/26 02:16:43;;;;;;;;;;;;;;;21.30;88.85;100961.34;7290822;19;152834;-53
2021/09/26 02:19:11;;;;;;;;;;;;;;;21.29;88.71;100956.84;7293013;19;152004;-54
2021/09/26 02:21:38;;;;;;;;;;;;;;;21.27;88.86;100954.34;7289868;19;152007;-53
2021/09/26 02:24:05;;;;;;;;;;;;;;;21.28;88.76;100960.78;7294806;19;153791;-53
2021/09/26 02:26:35;;;;;;;;;;;;;;;21.28;88.64;100964.44;7291935;19;152703;-54
2021/09/26 02:29:02;;;;;;;;;;;;;;;21.28;89.02;100967.25;7285851;19;153360;-53
2021/09/26 02:31:29;;;;;;;;;;;;;;;21.28;89.20;100963.59;7290277;19;151524;-53
2021/09/26 02:33:56;;;;;;;;;;;;;;;21.30;88.84;100961.34;7290291;19;152750;-53
2021/09/26 02:36:23;;;;;;;;;;;;;;;21.32;88.97;100958.19;7290920;19;153755;-53
2021/09/26 02:38:49;;;;;;;;;;;;;;;21.30;89.10;100956.50;7289652;19;152305;-53
2021/09/26 02:41:26;;;;;;;;;;;;;;;21.30;89.13;100950.09;7291938;19;153125;-52
2021/09/26 02:44:02;;;;;;;;;;;;;;;21.30;88.76;100945.28;7288978;19;154091;-53
2021/09/26 02:46:31;;;;;;;;;;;;;;;21.31;88.57;100943.28;7298864;19;152023;-54
2021/09/26 02:48:59;;;;;;;;;;;;;;;21.31;89.04;100932.06;7288901;19;152531;-52
2021/09/26 02:51:26;;;;;;;;;;;;;;;21.32;88.67;100924.47;7290816;19;151769;-53
2021/09/26 02:53:55;;;;;;;;;;;;;;;21.32;88.57;100928.09;7289821;19;153551;-53
2021/09/26 02:56:24;;;;;;;;;;;;;;;21.34;88.64;100925.00;7287065;19;152016;-54
2021/09/26 02:58:52;;;;;;;;;;;;;;;21.34;88.91;100914.59;7290102;19;151853;-56
2021/09/26 03:01:19;;;;;;;;;;;;;;;21.34;89.09;100919.38;7288885;19;152065;-56
2021/09/26 03:03:46;;;;;;;;;;;;;;;21.35;88.88;100915.41;7288202;19;153485;-53
2021/09/26 03:06:13;;;;;;;;;;;;;;;21.37;88.84;100913.09;7290855;19;152206;-53
2021/09/26 03:08:40;;;;;;;;;;;;;;;21.37;88.81;100904.69;7295913;19;152580;-54
2021/09/26 03:11:06;;;;;;;;;;;;;;;21.36;88.78;100915.09;7288667;19;152201;-53
2021/09/26 03:13:33;;;;;;;;;;;;;;;21.36;88.76;100908.63;7290298;19;152344;-53
2021/09/26 03:16:00;;;;;;;;;;;;;;;21.35;88.58;100902.16;7289778;19;153640;-53
2021/09/26 03:18:27;;;;;;;;;;;;;;;21.36;88.60;100900.19;7291386;19;152109;-54
2021/09/26 03:20:53;;;;;;;;;;;;;;;21.36;88.53;100894.56;7290990;19;152731;-53
2021/09/26 03:23:20;;;;;;;;;;;;;;;21.35;88.83;100892.94;7286576;19;154252;-53
2021/09/26 03:25:47;;;;;;;;;;;;;;;21.34;88.79;100889.28;7290258;19;152366;-53
2021/09/26 03:28:14;;;;;;;;;;;;;;;21.33;88.79;100893.25;7290395;19;152566;-53
2021/09/26 03:30:41;;;;;;;;;;;;;;;21.35;88.74;100890.94;7297197;19;153679;-51
2021/09/26 03:33:07;;;;;;;;;;;;;;;21.34;88.57;100882.84;7289081;19;152003;-53
2021/09/26 03:35:37;;;;;;;;;;;;;;;21.35;88.61;100884.50;7289070;19;153829;-53
2021/09/26 03:38:04;;;;;;;;;;;;;;;21.34;88.80;100883.66;7289024;19;151827;-53
2021/09/26 03:40:31;;;;;;;;;;;;;;;21.35;89.10;100873.25;7289128;19;152366;-53
2021/09/26 03:42:59;;;;;;;;;;;;;;;21.36;88.83;100874.91;7286397;19;152620;-53
2021/09/26 03:45:25;;;;;;;;;;;;;;;21.35;89.18;100876.06;7287988;19;151551;-53
2021/09/26 03:47:53;;;;;;;;;;;;;;;21.34;88.70;100875.25;7289957;19;153307;-52
2021/09/26 03:50:19;;;;;;;;;;;;;;;21.36;89.02;100872.94;7295370;19;154015;-52
2021/09/26 03:52:46;;;;;;;;;;;;;;;21.36;88.99;100875.72;7289905;19;152987;-54
2021/09/26 03:55:14;;;;;;;;;;;;;;;21.38;88.63;100879.06;7287722;19;153223;-52
2021/09/26 03:57:42;;;;;;;;;;;;;;;21.39;89.01;100882.72;7288649;19;151942;-53
2021/09/26 04:00:10;;;;;;;;;;;;;;;21.40;88.47;100878.75;7288874;19;153293;-53
2021/09/26 04:02:37;;;;;;;;;;;;;;;21.43;88.66;100873.34;7287381;19;154150;-52
2021/09/26 04:05:04;;;;;;;;;;;;;;;21.41;88.45;100874.78;7287706;19;151959;-53
2021/09/26 04:07:31;;;;;;;;;;;;;;;21.40;88.70;100878.75;7287610;19;153434;-53
2021/09/26 04:09:58;;;;;;;;;;;;;;;21.39;88.89;100883.56;7286476;19;153440;-54
2021/09/26 04:12:25;;;;;;;;;;;;;;;21.39;88.80;100882.72;7296813;19;151890;-53
2021/09/26 04:14:52;;;;;;;;;;;;;;;21.37;89.03;100885.84;7285699;19;153904;-53
2021/09/26 04:17:18;;;;;;;;;;;;;;;21.36;89.07;100880.53;7289009;19;151874;-52
2021/09/26 04:19:45;;;;;;;;;;;;;;;21.36;88.81;100877.72;7289070;19;152652;-53
2021/09/26 04:22:12;;;;;;;;;;;;;;;21.36;88.92;100877.72;7288957;19;154013;-53
2021/09/26 04:24:38;;;;;;;;;;;;;;;21.36;88.57;100874.91;7286827;19;151513;-52
2021/09/26 04:27:05;;;;;;;;;;;;;;;21.36;88.84;100881.34;7286872;19;151979;-53
2021/09/26 04:29:32;;;;;;;;;;;;;;;21.35;88.68;100874.06;7288117;19;153351;-52
2021/09/26 04:31:58;;;;;;;;;;;;;;;21.35;88.62;100873.25;7287634;19;152035;-53
2021/09/26 04:34:27;;;;;;;;;;;;;;;21.35;89.17;100867.66;7291465;19;154584;-52
2021/09/26 04:36:54;;;;;;;;;;;;;;;21.35;88.72;100865.63;7289037;19;151718;-53
2021/09/26 04:39:22;;;;;;;;;;;;;;;21.35;88.94;100868.44;7286836;19;153195;-54
2021/09/26 04:41:48;;;;;;;;;;;;;;;21.36;88.83;100864.50;7285847;19;154398;-53
2021/09/26 04:44:15;;;;;;;;;;;;;;;21.35;88.86;100867.66;7285172;19;153367;-53
2021/09/26 04:46:42;;;;;;;;;;;;;;;21.35;89.06;100868.44;7286356;19;152751;-53
2021/09/26 04:49:09;;;;;;;;;;;;;;;21.35;88.70;100874.06;7286858;19;154088;-52
2021/09/26 04:51:36;;;;;;;;;;;;;;;21.34;89.18;100868.78;7287736;19;151891;-54
2021/09/26 04:54:02;;;;;;;;;;;;;;;21.33;89.09;100865.13;7286248;19;153453;-52
2021/09/26 04:56:29;;;;;;;;;;;;;;;21.33;89.07;100861.50;7293276;19;152450;-53
2021/09/26 04:58:56;;;;;;;;;;;;;;;21.36;88.68;100869.28;7285357;19;153398;-53
2021/09/26 05:01:23;;;;;;;;;;;;;;;21.35;88.52;100860.00;7284838;19;154262;-53
2021/09/26 05:03:50;;;;;;;;;;;;;;;21.34;88.77;100854.72;7284906;19;152354;-52
2021/09/26 05:06:17;;;;;;;;;;;;;;;21.33;88.79;100856.72;7286171;19;152892;-53
2021/09/26 05:08:44;;;;;;;;;;;;;;;21.34;89.15;100860.34;7285044;19;152687;-54
2021/09/26 05:11:11;;;;;;;;;;;;;;;21.33;88.90;100853.91;7287547;19;151674;-53
2021/09/26 05:13:37;;;;;;;;;;;;;;;21.33;89.14;100853.91;7285751;19;152220;-52
2021/09/26 05:16:04;;;;;;;;;;;;;;;21.32;88.99;100857.00;7284791;19;153160;-56
2021/09/26 05:18:31;;;;;;;;;;;;;;;21.32;89.02;100852.22;7294862;19;152670;-52
2021/09/26 05:20:58;;;;;;;;;;;;;;;21.32;88.97;100852.22;7285361;19;153997;-53
2021/09/26 05:23:25;;;;;;;;;;;;;;;21.32;89.35;100857.84;7286846;19;151712;-52
2021/09/26 05:25:52;;;;;;;;;;;;;;;21.33;89.03;100858.69;7285193;19;153654;-52
2021/09/26 05:28:18;;;;;;;;;;;;;;;21.33;89.52;100859.50;7283877;19;152461;-52
2021/09/26 05:30:45;;;;;;;;;;;;;;;21.33;89.56;100858.69;7285298;19;152821;-53
2021/09/26 05:33:12;;;;;;;;;;;;;;;21.36;89.45;100869.28;7286265;19;152942;-53
2021/09/26 05:35:39;;;;;;;;;;;;;;;21.34;89.48;100861.19;7285873;19;152377;-52
2021/09/26 05:38:06;;;;;;;;;;;;;;;21.34;89.52;100860.34;7285184;19;151933;-52
2021/09/26 05:40:33;;;;;;;;;;;;;;;21.35;89.48;100862.03;7293414;19;152746;-53
2021/09/26 05:42:59;;;;;;;;;;;;;;;21.32;89.20;100863.47;7286975;19;152143;-53
2021/09/26 05:45:26;;;;;;;;;;;;;;;21.32;89.77;100863.47;7283425;19;152589;-54
2021/09/26 05:47:53;;;;;;;;;;;;;;;21.32;89.26;100871.91;7286120;19;153215;-52
2021/09/26 05:50:20;;;;;;;;;;;;;;;21.33;89.42;100872.72;7286261;19;152471;-52
2021/09/26 05:52:48;;;;;;;;;;;;;;;21.32;89.43;100869.09;7285149;19;153748;-53
2021/09/26 05:55:15;;;;;;;;;;;;;;;21.32;89.69;100873.88;7283187;19;153373;-53
2021/09/26 05:57:42;;;;;;;;;;;;;;;21.34;89.33;100877.22;7283443;19;151913;-53
2021/09/26 06:00:13;;;;;;;;;;;;;;;21.32;89.78;100879.50;7290285;19;152700;-53
2021/09/26 06:02:39;;;;;;;;;;;;;;;21.32;89.47;100883.13;7284906;19;151799;-52
2021/09/26 06:05:07;;;;;;;;;;;;;;;21.33;89.64;100896.06;7283953;19;152756;-53
2021/09/26 06:07:34;;;;;;;;;;;;;;;21.32;89.45;100897.19;7285349;19;153880;-53
2021/09/26 06:10:02;;;;;;;;;;;;;;;21.33;89.58;100898.88;7284049;19;151486;-53
2021/09/26 06:12:29;;;;;;;;;;;;;;;21.32;89.69;100899.16;7283390;19;153438;-53
2021/09/26 06:14:57;;;;;;;;;;;;;;;21.31;89.65;100898.34;7282372;19;152657;-54
2021/09/26 06:17:23;;;;;;;;;;;;;;;21.32;89.45;100897.19;7283940;19;151806;-53
2021/09/26 06:19:52;;;;;;;;;;;;;;;21.34;89.28;100894.91;7284105;19;152576;-52
2021/09/26 06:22:19;;;;;;;;;;;;;;;21.32;89.70;100888.75;7292169;19;153326;-53
2021/09/26 06:24:47;;;;;;;;;;;;;;;21.31;89.74;100898.34;7283966;19;152961;-52
2021/09/26 06:27:14;;;;;;;;;;;;;;;21.30;89.23;100903.13;7284237;19;152614;-53
2021/09/26 06:29:41;;;;;;;;;;;;;;;21.31;89.30;100889.91;7283577;19;151770;-53
2021/09/26 06:32:08;;;;;;;;;;;;;;;21.31;89.76;100895.53;7285273;19;152941;-52
2021/09/26 06:34:36;;;;;;;;;;;;;;;21.30;89.78;100896.69;7284353;19;153931;-53
2021/09/26 06:37:03;;;;;;;;;;;;;;;21.30;89.51;100897.50;7283237;19;152026;-53
2021/09/26 06:39:29;;;;;;;;;;;;;;;21.34;89.92;100894.06;7283088;19;152352;-53
2021/09/26 06:41:56;;;;;;;;;;;;;;;21.35;89.59;100904.97;7281171;19;152276;-52
2021/09/26 06:44:23;;;;;;;;;;;;;;;21.32;89.67;100908.44;7291652;19;151469;-53
2021/09/26 06:46:49;;;;;;;;;;;;;;;21.33;89.58;100915.72;7281418;19;153889;-53
2021/09/26 06:49:16;;;;;;;;;;;;;;;21.32;89.47;100922.47;7282901;19;151770;-53
2021/09/26 06:51:43;;;;;;;;;;;;;;;21.32;89.51;100919.69;7284184;19;151709;-52
2021/09/26 06:54:10;;;;;;;;;;;;;;;21.32;89.74;100932.88;7281855;19;152073;-53
2021/09/26 06:56:36;;;;;;;;;;;;;;;21.30;89.82;100934.03;7285141;19;151945;-52
2021/09/26 06:59:03;;;;;;;;;;;;;;;21.31;89.57;100937.69;7287470;19;153384;-53
2021/09/26 07:01:32;;;;;;;;;;;;;;;21.31;89.84;100937.69;7287796;19;152691;-53
2021/09/26 07:04:00;;;;;;;;;;;;;;;21.32;89.47;100941.31;7291077;19;151814;-53
2021/09/26 07:06:27;;;;;;;;;;;;;;;21.31;89.45;100932.06;7294535;19;151964;-52
2021/09/26 07:08:54;;;;;;;;;;;;;;;21.30;89.71;100927.59;7291262;19;151592;-52
2021/09/26 07:11:21;;;;;;;;;;;;;;;21.29;89.76;100926.78;7291024;19;153193;-51
2021/09/26 07:13:48;;;;;;;;;;;;;;;21.30;89.74;100927.59;7287704;19;153598;-53
2021/09/26 07:16:15;;;;;;;;;;;;;;;21.30;89.53;100933.22;7289132;19;151608;-53
2021/09/26 07:18:42;;;;;;;;;;;;;;;21.30;90.05;100938.84;7289050;19;153050;-53
2021/09/26 07:21:11;;;;;;;;;;;;;;;21.32;89.94;100944.13;7289282;19;152306;-53
2021/09/26 07:23:38;;;;;;;;;;;;;;;21.32;89.97;100952.56;7291376;19;151879;-52
2021/09/26 07:26:05;;;;;;;;;;;;;;;21.32;89.72;100952.56;7285837;19;152119;-52
2021/09/26 07:28:32;;;;;;;;;;;;;;;21.31;89.82;100957.34;7297343;19;153218;-53
2021/09/26 07:30:59;;;;;;;;;;;;;;;21.36;89.84;100959.22;7289384;19;151917;-53
2021/09/26 07:33:26;;;;;;;;;;;;;;;21.34;90.11;100953.09;7286343;19;153253;-53
2021/09/26 07:35:53;;;;;;;;;;;;;;;21.41;89.94;100950.69;7290721;19;151411;-54
2021/09/26 07:38:20;;;;;;;;;;;;;;;21.40;90.01;100951.81;7289616;19;153455;-54
2021/09/26 07:40:47;;;;;;;;;;;;;;;21.38;89.61;100956.94;7286754;19;152729;-53
2021/09/26 07:43:14;;;;;;;;;;;;;;;21.39;89.36;100956.63;7288358;19;154558;-53
2021/09/26 07:45:54;;;;;;;;;;;;;;;21.40;89.17;100958.28;7287737;19;153326;-54
2021/09/26 07:48:21;;;;;;;;;;;;;;;21.36;89.10;100962.88;7287362;19;153433;-52
2021/09/26 07:50:49;;;;;;;;;;;;;;;21.34;89.36;100965.16;7295247;19;151862;-53
2021/09/26 07:53:16;;;;;;;;;;;;;;;21.36;89.22;100959.22;7289164;19;153683;-52
2021/09/26 07:55:43;;;;;;;;;;;;;;;21.27;89.74;100968.38;7284604;19;151986;-54
2021/09/26 07:58:10;;;;;;;;;;;;;;;21.14;90.76;100965.59;7285663;19;152430;-54
2021/09/26 08:00:37;;;;;;;;;;;;;;;21.09;91.19;100972.09;7286582;19;153395;-54
2021/09/26 08:03:08;;;;;;;;;;;;;;;21.07;91.59;100970.78;7289603;19;151952;-53
2021/09/26 08:05:35;;;;;;;;;;;;;;;21.03;91.76;100966.91;7286666;19;151998;-53
2021/09/26 08:08:02;;;;;;;;;;;;;;;21.00;92.36;100970.34;7286845;19;154156;-53
2021/09/26 08:10:29;;;;;;;;;;;;;;;20.95;92.41;100976.03;7291697;19;151698;-53
2021/09/26 08:12:56;;;;;;;;;;;;;;;20.93;92.41;100970.75;7287478;19;153227;-53
2021/09/26 08:15:23;;;;;;;;;;;;;;;20.92;92.79;100973.88;7288022;19;152378;-54
2021/09/26 08:17:50;;;;;;;;;;;;;;;20.90;92.84;100962.94;7289113;19;152906;-53
2021/09/26 08:20:17;;;;;;;;;;;;;;;20.88;93.35;100967.22;7286994;19;152368;-53
2021/09/26 08:22:44;;;;;;;;;;;;;;;20.85;93.43;100977.91;7285974;19;151979;-53
2021/09/26 08:25:12;;;;;;;;;;;;;;;20.87;94.03;100969.19;7285523;19;153047;-53
2021/09/26 08:27:39;;;;;;;;;;;;;;;20.84;93.84;100970.66;7284848;19;153441;-54
2021/09/26 08:30:08;;;;;;;;;;;;;;;20.83;94.61;100985.81;7284641;19;151761;-53
2021/09/26 08:32:36;;;;;;;;;;;;;;;20.74;95.09;100984.03;7294600;19;153713;-53
2021/09/26 08:35:03;;;;;;;;;;;;;;;20.79;94.76;100979.16;7287241;19;152219;-53
2021/09/26 08:37:30;;;;;;;;;;;;;;;20.81;94.41;100982.47;7285994;19;152746;-53
2021/09/26 08:39:57;;;;;;;;;;;;;;;20.92;92.96;100980.31;7286687;19;153806;-54
2021/09/26 08:42:23;;;;;;;;;;;;;;;20.96;93.01;100980.53;7287132;19;151818;-52
2021/09/26 08:44:51;;;;;;;;;;;;;;;21.04;91.59;100989.06;7287205;19;153515;-54
2021/09/26 08:47:18;;;;;;;;;;;;;;;21.06;91.76;100983.13;7285105;19;153686;-54
2021/09/26 08:49:45;;;;;;;;;;;;;;;21.08;92.48;100990.09;7286233;19;151726;-54
2021/09/26 08:52:12;;;;;;;;;;;;;;;21.12;92.08;101001.56;7288000;19;153134;-54
2021/09/26 08:54:39;;;;;;;;;;;;;;;21.09;92.45;101003.00;7292745;19;153996;-54
2021/09/26 08:57:06;;;;;;;;;;;;;;;21.10;91.83;101001.03;7287061;19;153034;-52
2021/09/26 08:59:33;;;;;;;;;;;;;;;21.13;94.09;100994.81;7283484;19;153716;-58
2021/09/26 09:02:02;;;;;;;;;;;;;;;21.13;91.53;100997.63;7284034;19;152372;-53
2021/09/26 09:04:32;;;;;;;;;;;;;;;21.12;91.81;100998.75;7284195;19;153036;-54
2021/09/26 09:07:01;;;;;;;;;;;;;;;21.12;91.21;100993.94;7281784;19;152784;-54
2021/09/26 09:09:28;;;;;;;;;;;;;;;21.14;90.81;101008.56;7282388;19;152184;-53
2021/09/26 09:11:58;;;;;;;;;;;;;;;21.14;91.09;101000.13;7273694;19;154372;-53
2021/09/26 09:14:25;;;;;;;;;;;;;;;21.14;90.67;101007.72;7276684;19;153703;-54
2021/09/26 09:16:54;;;;;;;;;;;;;;;21.13;90.88;101006.88;7280457;19;152488;-54
2021/09/26 09:19:21;;;;;;;;;;;;;;;21.15;90.54;101013.03;7276966;19;153415;-53
2021/09/26 09:22:03;;;;;;;;;;;;;;;21.17;90.65;101007.09;7277375;19;152033;-53
2021/09/26 09:24:37;;;;;;;;;;;;;;;21.17;90.30;101002.31;7277905;19;151971;-54
2021/09/26 09:27:03;;;;;;;;;;;;;;;21.19;89.79;101002.00;7280331;19;152281;-54
2021/09/26 09:29:34;;;;;;;;;;;;;;;21.18;90.14;101009.59;7282149;19;151889;-53
2021/09/26 09:32:01;;;;;;;;;;;;;;;21.21;90.25;101010.97;7278009;19;152075;-54
2021/09/26 09:34:30;;;;;;;;;;;;;;;21.19;90.36;101014.09;7282190;19;153752;-53
2021/09/26 09:37:00;;;;;;;;;;;;;;;21.20;90.45;101012.94;7280064;19;152059;-53
2021/09/26 09:39:27;;;;;;;;;;;;;;;21.19;90.78;101007.63;7287197;19;152703;-54
2021/09/26 09:41:55;;;;;;;;;;;;;;;21.21;90.63;101005.34;7283008;19;152138;-53
2021/09/26 09:44:35;;;;;;;;;;;;;;;21.20;90.64;101004.53;7282718;19;152370;-53
2021/09/26 09:47:02;;;;;;;;;;;;;;;21.20;90.44;101003.69;7281238;19;153279;-53
2021/09/26 09:49:28;;;;;;;;;;;;;;;21.20;90.10;101001.72;7280826;19;151957;-53
2021/09/26 09:51:58;;;;;;;;;;;;;;;21.22;90.35;101007.00;7281376;19;153584;-53
2021/09/26 09:54:26;;;;;;;;;;;;;;;21.22;90.16;101009.81;7279561;19;153016;-53
2021/09/26 09:56:56;;;;;;;;;;;;;;;21.24;89.99;101010.34;7280594;19;151730;-53
2021/09/26 09:59:25;;;;;;;;;;;;;;;21.23;90.42;101003.88;7279762;19;153120;-53
2021/09/26 10:01:52;;;;;;;;;;;;;;;21.26;90.20;101006.06;7285558;19;151693;-53
2021/09/26 10:04:21;;;;;;;;;;;;;;;21.23;90.15;100995.47;7278852;19;153536;-53
2021/09/26 10:06:49;;;;;;;;;;;;;;;21.23;90.45;100995.47;7278189;19;152726;-54
2021/09/26 10:09:19;;;;;;;;;;;;;;;21.27;90.61;101004.09;7278666;19;151923;-53
2021/09/26 10:11:47;;;;;;;;;;;;;;;21.25;90.89;101003.59;7280412;19;153005;-53
2021/09/26 10:14:16;;;;;;;;;;;;;;;21.22;91.57;101002.22;7275574;19;153602;-53
2021/09/26 10:16:44;;;;;;;;;;;;;;;21.23;91.63;101006.69;7279379;19;152255;-53
2021/09/26 10:19:10;;;;;;;;;;;;;;;21.29;91.14;101015.88;7279393;19;153102;-53
2021/09/26 10:21:38;;;;;;;;;;;;;;;21.26;91.52;101008.03;7286076;19;156523;-53
2021/09/26 10:24:05;;;;;;;;;;;;;;;21.26;91.53;101006.06;7279246;19;152074;-53
2021/09/26 10:26:33;;;;;;;;;;;;;;;21.27;91.57;101004.09;7277891;19;153350;-53
2021/09/26 10:29:01;;;;;;;;;;;;;;;21.29;91.31;101005.47;7281130;19;152049;-54
2021/09/26 10:31:29;;;;;;;;;;;;;;;21.26;91.98;101006.06;7281973;19;152562;-53
2021/09/26 10:33:59;;;;;;;;;;;;;;;21.34;91.50;101006.50;7286075;19;152283;-52
2021/09/26 10:36:27;;;;;;;;;;;;;;;21.36;91.29;101007.84;7290480;19;152324;-52
2021/09/26 10:38:54;;;;;;;;;;;;;;;21.36;91.36;101001.38;7291052;19;153193;-52
2021/09/26 10:41:23;;;;;;;;;;;;;;;21.36;91.08;100999.41;7285356;19;152626;-52
2021/09/26 10:43:50;;;;;;;;;;;;;;;21.30;91.52;100998.66;7295871;19;152311;-53
2021/09/26 10:46:19;;;;;;;;;;;;;;;21.29;91.69;101005.47;7285279;19;152706;-54
2021/09/26 10:48:49;;;;;;;;;;;;;;;21.32;91.86;100997.53;7288227;19;151908;-53
2021/09/26 10:51:19;;;;;;;;;;;;;;;21.37;90.72;100998.25;7287013;19;152762;-52
2021/09/26 10:53:48;;;;;;;;;;;;;;;21.43;90.53;101007.44;7286078;19;153850;-54
2021/09/26 10:56:18;;;;;;;;;;;;;;;21.43;90.75;101015.88;7288365;19;152701;-53
2021/09/26 10:58:48;;;;;;;;;;;;;;;21.39;91.01;101010.03;7285448;19;151962;-54
2021/09/26 11:01:28;;;;;;;;;;;;;;;21.37;90.56;101017.09;7282882;19;154336;-54
2021/09/26 11:03:55;;;;;;;;;;;;;;;21.35;90.89;101002.56;7287181;19;151930;-52
2021/09/26 11:06:25;;;;;;;;;;;;;;;21.37;90.30;100997.44;7294699;19;152725;-54
2021/09/26 11:08:54;;;;;;;;;;;;;;;21.34;90.91;100993.28;7287616;19;152290;-54
2021/09/26 11:11:23;;;;;;;;;;;;;;;21.35;90.95;100988.50;7287300;19;153584;-53
2021/09/26 11:13:56;;;;;;;;;;;;;;;21.33;90.68;100994.41;7286085;19;153833;-52
2021/09/26 11:16:23;;;;;;;;;;;;;;;21.34;90.68;100993.28;7284678;19;151818;-53
2021/09/26 11:18:58;;;;;;;;;;;;;;;21.34;90.90;100986.81;7289787;19;152615;-53
2021/09/26 11:21:28;;;;;;;;;;;;;;;21.36;90.21;100985.34;7286397;19;153609;-53
2021/09/26 11:23:58;;;;;;;;;;;;;;;21.34;90.42;100976.41;7289402;19;151814;-53
2021/09/26 11:26:25;;;;;;;;;;;;;;;21.34;90.52;100984.00;7287485;19;153683;-53
2021/09/26 11:28:54;;;;;;;;;;;;;;;21.33;90.64;100977.56;7294355;19;152331;-55
2021/09/26 11:31:24;;;;;;;;;;;;;;;21.34;90.08;100975.59;7288703;19;152826;-53
2021/09/26 11:33:53;;;;;;;;;;;;;;;21.33;90.25;100979.53;7285666;19;153593;-53
2021/09/26 11:36:30;;;;;;;;;;;;;;;21.33;90.08;100971.09;7285860;19;154084;-53
2021/09/26 11:39:13;;;;;;;;;;;;;;;21.32;90.38;100981.50;7281919;19;151942;-53
2021/09/26 11:41:40;;;;;;;;;;;;;;;21.34;89.80;100978.41;7285407;19;152327;-53
2021/09/26 11:44:08;;;;;;;;;;;;;;;21.33;89.86;100980.38;7287996;19;152032;-53
2021/09/26 11:46:35;;;;;;;;;;;;;;;21.33;89.44;100971.94;7286627;19;152617;-53
2021/09/26 11:49:04;;;;;;;;;;;;;;;21.34;89.41;100973.59;7287702;19;152504;-53
2021/09/26 11:51:31;;;;;;;;;;;;;;;21.32;89.36;100970.25;7295009;19;152166;-53
2021/09/26 11:53:58;;;;;;;;;;;;;;;21.35;89.32;100978.06;7287340;19;153753;-53
2021/09/26 11:56:27;;;;;;;;;;;;;;;21.37;89.04;100972.97;7285547;19;152090;-53
2021/09/26 11:58:56;;;;;;;;;;;;;;;21.40;89.42;100971.50;7285861;19;152885;-53
2021/09/26 12:01:28;;;;;;;;;;;;;;;21.40;89.00;100977.13;7285207;19;153694;-53
2021/09/26 12:03:58;;;;;;;;;;;;;;;21.39;89.43;100975.47;7288127;19;151535;-52
2021/09/26 12:06:25;;;;;;;;;;;;;;;21.37;89.08;100970.16;7285795;19;153735;-52
2021/09/26 12:08:52;;;;;;;;;;;;;;;21.37;89.08;100970.16;7285035;19;154078;-53
2021/09/26 12:11:20;;;;;;;;;;;;;;;21.37;89.08;100966.50;7293816;19;151498;-53
2021/09/26 12:13:49;;;;;;;;;;;;;;;21.39;89.19;100987.56;7285788;19;153614;-54
2021/09/26 12:16:17;;;;;;;;;;;;;;;21.39;89.02;100978.28;7279909;19;152054;-54
2021/09/26 12:18:59;;;;;;;;;;;;;;;21.38;89.29;100969.03;7286348;19;151999;-53
2021/09/26 12:21:27;;;;;;;;;;;;;;;21.37;88.93;100974.94;7284502;19;152573;-52
2021/09/26 12:24:00;;;;;;;;;;;;;;;21.35;88.82;100975.25;7285181;19;151953;-53
2021/09/26 12:26:29;;;;;;;;;;;;;;;21.35;89.36;100968.81;7285846;19;152490;-53
2021/09/26 12:28:58;;;;;;;;;;;;;;;21.36;88.84;100968.50;7285427;19;153611;-53
2021/09/26 12:31:26;;;;;;;;;;;;;;;21.39;88.58;100976.31;7285184;19;151980;-53
2021/09/26 12:33:54;;;;;;;;;;;;;;;21.37;88.73;100963.69;7293691;19;152710;-53